Time;durP1;ratioP1;P1;durP2;ratioP2;P2;SDS_P1;SDS_P2;PMS_P1;PMS_P2;Temp;Humidity;BMP_temperature;BMP_pressure;BME280_temperature;BME280_humidity;BME280_pressure;Samples;Min_cycle;Max_cycle;Signal;HPM_P1;HPM_P2
2021/09/14 00:01:08;;;;;;;14.43;8.67;;;16.10;1.00;;;;;;5019669;28;20174;-77
2021/09/14 00:06:57;;;;;;;12.30;8.70;;;16.10;1.00;;;;;;5016052;28;20411;-77
2021/09/14 00:09:50;;;;;;;10.70;8.20;;;;;;;;;;5015169;28;20436;-77
2021/09/14 00:12:33;;;;;;;17.30;8.40;;;16.00;1.00;;;;;;5016606;28;20479;-77
2021/09/14 00:15:10;;;;;;;13.03;8.30;;;15.90;1.00;;;;;;5021152;28;20486;-77
2021/09/14 00:17:36;;;;;;;10.00;7.53;;;16.70;1.00;;;;;;5035937;28;20470;-77
2021/09/14 00:23:44;;;;;;;13.83;8.10;;;15.80;1.00;;;;;;5035504;28;20882;-77
2021/09/14 00:26:10;;;;;;;13.27;8.93;;;15.80;1.00;;;;;;5035172;28;20415;-77
2021/09/14 00:28:45;;;;;;;21.20;8.70;;;16.20;1.00;;;;;;5035460;28;20403;-77
2021/09/14 00:31:15;;;;;;;16.83;8.63;;;15.70;1.00;;;;;;5016798;28;20238;-77
2021/09/14 00:34:08;;;;;;;12.90;8.33;;;15.70;1.00;;;;;;5021540;28;20486;-77
2021/09/14 00:37:26;;;;;;;14.20;9.20;;;15.60;1.00;;;;;;5032887;28;20426;-77
2021/09/14 00:39:52;;;;;;;10.60;8.13;;;15.60;1.00;;;;;;5032572;28;20423;-77
2021/09/14 00:42:27;;;;;;;12.07;8.80;;;15.50;1.00;;;;;;5035387;28;20393;-77
2021/09/14 00:44:57;;;;;;;12.60;8.37;;;15.50;1.00;;;;;;5033705;28;20171;-77
2021/09/14 00:47:33;;;;;;;13.70;8.93;;;16.80;1.00;;;;;;5016071;28;20484;-77
2021/09/14 00:50:09;;;;;;;12.60;8.23;;;15.40;1.00;;;;;;5032665;28;20828;-77
2021/09/14 00:52:56;;;;;;;15.10;9.13;;;15.40;1.00;;;;;;5034625;28;20457;-77
2021/09/14 00:58:45;;;;;;;15.03;9.10;;;15.30;1.00;;;;;;5034101;28;20505;-77
2021/09/14 01:04:32;;;;;;;10.70;9.00;;;15.30;1.00;;;;;;5022842;28;20391;-77
2021/09/14 01:07:01;;;;;;;15.70;9.30;;;15.20;1.00;;;;;;5015472;28;20396;-77
2021/09/14 01:10:02;;;;;;;13.00;8.50;;;15.20;1.00;;;;;;5026425;28;20184;-77
2021/09/14 01:13:08;;;;;;;15.50;9.20;;;15.10;1.00;;;;;;5034921;28;20479;-77
2021/09/14 01:16:26;;;;;;;18.30;8.90;;;15.00;1.00;;;;;;5034141;28;20460;-77
2021/09/14 01:19:44;;;;;;;14.67;8.30;;;15.10;1.00;;;;;;5033766;28;20466;-77
2021/09/14 01:25:31;;;;;;;11.77;8.73;;;15.00;1.00;;;;;;5034238;28;20402;-78
2021/09/14 01:28:32;;;;;;;14.07;8.77;;;15.00;1.00;;;;;;5034538;28;20849;-77
2021/09/14 01:34:38;;;;;;;12.73;8.57;;;14.90;1.00;;;;;;5023279;28;20378;-78
2021/09/14 01:37:44;;;;;;;10.80;8.63;;;14.90;1.00;;;;;;5020422;28;20552;-77
2021/09/14 01:40:27;;;;;;;19.87;9.40;;;14.90;1.00;;;;;;5034302;28;20418;-77
2021/09/14 01:43:23;;;;;;;13.57;9.23;;;14.80;1.00;;;;;;5034235;28;20382;-77
2021/09/14 01:46:03;;;;;;;16.83;9.70;;;14.80;1.00;;;;;;5051810;28;20426;-77
2021/09/14 01:52:28;;;;;;;12.27;8.83;;;14.70;1.00;;;;;;5051712;28;20447;-77
2021/09/14 01:55:17;;;;;;;13.77;8.90;;;14.70;1.00;;;;;;5052199;28;20481;-77
2021/09/14 02:05:08;;;;;;;17.83;9.17;;;14.70;1.00;;;;;;5012391;28;20818;-77
2021/09/14 02:59:14;;;;;;;21.43;12.17;;;14.30;1.00;;;;;;5035584;28;20370;-77
2021/09/14 03:01:51;;;;;;;22.83;11.03;;;14.30;1.00;;;;;;5035567;28;20382;-77
2021/09/14 03:04:16;;;;;;;19.00;11.03;;;14.30;1.00;;;;;;5052109;28;20424;-77
2021/09/14 03:07:20;;;;;;;17.97;11.00;;;14.30;1.00;;;;;;5048419;28;20453;-77
2021/09/14 03:10:03;;;;;;;16.63;10.67;;;14.40;1.00;;;;;;5035084;28;20180;-77
2021/09/14 03:12:33;;;;;;;20.20;12.67;;;14.30;1.00;;;;;;5052602;28;20389;-77
2021/09/14 03:15:38;;;;;;;15.43;10.57;;;14.40;1.00;;;;;;5036149;28;20436;-77
2021/09/14 03:18:21;;;;;;;14.63;10.33;;;14.40;1.00;;;;;;5034821;28;20446;-77
2021/09/14 03:20:51;;;;;;;12.83;9.67;;;14.40;1.00;;;;;;5035178;28;20440;-77
2021/09/14 03:24:08;;;;;;;15.43;10.03;;;14.30;1.00;;;;;;5038074;28;20419;-77
2021/09/14 03:27:08;;;;;;;14.57;9.30;;;14.30;1.00;;;;;;5050041;28;20485;-77
2021/09/14 03:30:03;;;;;;;15.70;10.07;;;14.30;1.00;;;;;;5025545;28;20438;-78
2021/09/14 03:32:29;;;;;;;18.10;10.60;;;14.30;1.00;;;;;;5016924;28;20399;-78
2021/09/14 03:34:55;;;;;;;16.37;10.37;;;14.20;1.00;;;;;;5024165;28;20781;-78
2021/09/14 03:37:20;;;;;;;15.97;10.30;;;14.30;1.00;;;;;;5028667;28;20231;-78
2021/09/14 03:39:51;;;;;;;13.70;9.23;;;14.20;1.00;;;;;;5016265;28;20160;-77
2021/09/14 03:42:17;;;;;;;18.20;9.40;;;14.20;1.00;;;;;;5023137;28;20177;-77
2021/09/14 03:44:42;;;;;;;18.10;9.03;;;14.20;1.00;;;;;;5028899;28;20386;-77
2021/09/14 03:47:21;;;;;;;18.00;10.77;;;14.30;1.00;;;;;;5029149;28;20244;-77
2021/09/14 03:49:51;;;;;;;15.47;10.17;;;14.20;1.00;;;;;;5016958;28;20519;-77
2021/09/14 03:52:21;;;;;;;17.83;10.50;;;14.10;1.00;;;;;;5017355;28;20840;-77
2021/09/14 03:54:57;;;;;;;16.17;10.73;;;14.10;1.00;;;;;;5026771;28;20806;-77
2021/09/14 04:00:51;;;;;;;24.20;9.97;;;14.20;1.00;;;;;;5036145;28;20758;-77
2021/09/14 04:03:26;;;;;;;29.97;10.27;;;14.10;1.00;;;;;;5036482;28;20419;-77
2021/09/14 04:06:19;;;;;;;14.70;9.80;;;14.10;1.00;;;;;;5036128;28;20450;-77
2021/09/14 04:11:17;;;;;;;22.60;10.90;;;14.00;1.00;;;;;;5016705;28;20419;-78
2021/09/14 04:13:45;;;;;;;15.90;10.77;;;14.00;1.00;;;;;;5016232;28;20442;-77
2021/09/14 04:16:21;;;;;;;18.00;11.43;;;14.00;1.00;;;;;;5032767;28;20496;-81
2021/09/14 04:18:51;;;;;;;17.00;10.10;;;14.00;1.00;;;;;;5018512;28;20386;-76
2021/09/14 04:21:21;;;;;;;15.03;10.03;;;14.00;1.00;;;;;;5016012;28;20367;-75
2021/09/14 04:23:47;;;;;;;13.90;10.10;;;13.90;1.00;;;;;;5020800;28;20386;-75
2021/09/14 04:26:15;;;;;;;14.93;10.13;;;13.90;1.00;;;;;;5034438;28;20488;-74
2021/09/14 04:29:02;;;;;;;16.97;10.00;;;13.90;1.00;;;;;;5035742;28;20200;-75
2021/09/14 04:31:33;;;;;;;21.13;12.03;;;13.90;1.00;;;;;;5035565;28;20450;-75
2021/09/14 04:34:38;;;;;;;20.20;11.03;;;13.90;1.00;;;;;;5027423;28;20969;-75
2021/09/14 04:37:21;;;;;;;15.37;10.77;;;13.80;1.00;;;;;;5019763;28;20426;-75
2021/09/14 04:40:03;;;;;;;17.90;11.60;;;13.80;1.00;;;;;;5035400;28;20468;-76
2021/09/14 04:42:29;;;;;;;21.43;12.03;;;13.80;1.00;;;;;;5028476;28;20745;-75
2021/09/14 04:45:03;;;;;;;22.43;11.57;;;13.80;1.00;;;;;;5034368;28;20382;-75
2021/09/14 04:47:29;;;;;;;22.13;10.43;;;13.70;1.00;;;;;;5034386;28;20169;-75
2021/09/14 04:50:04;;;;;;;20.80;12.10;;;13.80;1.00;;;;;;5015797;28;20378;-76
2021/09/14 04:52:39;;;;;;;19.90;10.40;;;13.80;1.00;;;;;;5034506;28;20677;-75
2021/09/14 04:55:05;;;;;;;15.60;10.20;;;13.70;1.00;;;;;;5035782;28;20357;-76
2021/09/14 04:57:31;;;;;;;15.00;10.43;;;13.70;1.00;;;;;;5034841;28;20405;-75
2021/09/14 04:59:57;;;;;;;15.60;10.37;;;13.70;1.00;;;;;;5035301;28;20909;-75
2021/09/14 05:02:22;;;;;;;19.63;10.73;;;13.70;1.00;;;;;;5022893;28;20537;-76
2021/09/14 05:04:48;;;;;;;17.70;11.20;;;13.70;1.00;;;;;;5014710;28;20375;-76
2021/09/14 05:07:14;;;;;;;19.53;11.60;;;13.70;1.00;;;;;;5014586;28;20165;-75
2021/09/14 05:09:39;;;;;;;18.77;11.70;;;13.70;1.00;;;;;;5014737;28;20771;-75
2021/09/14 05:12:21;;;;;;;19.33;11.20;;;13.70;1.00;;;;;;5030428;28;20217;-79
2021/09/14 05:14:51;;;;;;;22.87;10.30;;;13.70;1.00;;;;;;5034700;28;20647;-78
2021/09/14 05:18:09;;;;;;;20.67;11.53;;;13.70;1.00;;;;;;5035072;28;20392;-78
2021/09/14 05:20:52;;;;;;;18.83;10.73;;;13.80;1.00;;;;;;5033480;28;20422;-78
2021/09/14 05:23:30;;;;;;;18.73;11.50;;;13.70;1.00;;;;;;5034914;28;20399;-77
2021/09/14 05:26:04;;;;;;;20.50;12.13;;;13.80;1.00;;;;;;5033898;28;20414;-77
2021/09/14 05:29:02;;;;;;;20.70;11.70;;;13.80;1.00;;;;;;5034677;28;20373;-77
2021/09/14 05:31:51;;;;;;;38.77;14.30;;;13.90;1.00;;;;;;5030618;28;20494;-78
2021/09/14 05:34:33;;;;;;;33.00;14.57;;;13.90;1.00;;;;;;5018639;28;20410;-78
2021/09/14 05:37:15;;;;;;;19.07;11.40;;;14.00;1.00;;;;;;5029284;28;20411;-78
2021/09/14 05:40:02;;;;;;;16.93;11.20;;;14.00;1.00;;;;;;5034615;28;20411;-77
2021/09/14 05:42:39;;;;;;;20.50;11.40;;;14.00;1.00;;;;;;5033699;28;20411;-77
2021/09/14 05:45:50;;;;;;;18.87;12.47;;;14.10;1.00;;;;;;5024203;28;20386;-77
2021/09/14 05:48:33;;;;;;;20.73;11.53;;;14.10;1.00;;;;;;5014553;28;20359;-77
2021/09/14 05:50:58;;;;;;;17.50;10.47;;;14.20;1.00;;;;;;5014778;28;20471;-77
2021/09/14 05:53:24;;;;;;;15.97;10.53;;;14.30;1.00;;;;;;5034154;28;20415;-77
2021/09/14 05:55:57;;;;;;;16.40;11.23;;;14.40;1.00;;;;;;5034016;28;20168;-77
2021/09/14 05:58:23;;;;;;;19.30;11.23;;;14.40;1.00;;;;;;5033788;28;20239;-77
2021/09/14 06:00:51;;;;;;;17.33;10.90;;;14.50;1.00;;;;;;5034153;28;20477;-77
2021/09/14 06:03:21;;;;;;;15.20;10.47;;;14.60;1.00;;;;;;5034206;28;20259;-77
2021/09/14 06:05:51;;;;;;;21.10;10.53;;;14.60;1.00;;;;;;5034549;28;20784;-77
2021/09/14 06:08:33;;;;;;;25.80;11.17;;;14.70;1.00;;;;;;5031524;28;20434;-77
2021/09/14 06:10:59;;;;;;;18.47;9.47;;;14.80;1.00;;;;;;5013958;28;20776;-78
2021/09/14 06:13:33;;;;;;;19.13;10.90;;;14.90;1.00;;;;;;5031313;28;20396;-78
2021/09/14 06:15:59;;;;;;;15.23;10.10;;;;;;;;;;5031698;28;20184;-79
2021/09/14 06:18:24;;;;;;;18.20;10.50;;;15.00;1.00;;;;;;5032981;28;20514;-78
2021/09/14 06:20:50;;;;;;;18.03;10.00;;;;;;;;;;5032663;28;20377;-78
2021/09/14 06:23:16;;;;;;;14.47;10.17;;;;;;;;;;5033173;28;20156;-78
2021/09/14 06:25:42;;;;;;;18.20;10.00;;;15.30;1.00;;;;;;5032952;28;20403;-77
2021/09/14 06:28:08;;;;;;;12.60;10.20;;;;;;;;;;5033232;28;20407;-77
2021/09/14 06:30:34;;;;;;;13.07;9.53;;;15.50;1.00;;;;;;5029582;28;20543;-77
2021/09/14 06:33:00;;;;;;;15.00;8.77;;;;;;;;;;5031589;28;20449;-77
2021/09/14 06:35:25;;;;;;;19.80;10.33;;;15.60;1.00;;;;;;5012575;28;20177;-77
2021/09/14 06:37:51;;;;;;;16.77;10.60;;;;;;;;;;5026648;28;20497;-77
2021/09/14 06:40:17;;;;;;;16.40;9.40;;;15.80;1.00;;;;;;5032284;28;20196;-78
2021/09/14 06:42:42;;;;;;;16.20;9.40;;;15.90;1.00;;;;;;5018821;28;20506;-78
2021/09/14 06:45:10;;;;;;;13.87;9.50;;;16.00;1.00;;;;;;5012955;28;20162;-78
2021/09/14 06:47:36;;;;;;;27.03;9.37;;;16.10;1.00;;;;;;5012893;28;20205;-78
2021/09/14 06:50:03;;;;;;;13.83;8.73;;;16.20;1.00;;;;;;5013125;28;20740;-78
2021/09/14 06:52:29;;;;;;;16.47;8.73;;;16.30;1.00;;;;;;5012668;28;20441;-78
2021/09/14 06:54:54;;;;;;;14.00;8.20;;;16.40;1.00;;;;;;5013302;28;20414;-78
2021/09/14 06:57:20;;;;;;;21.63;8.90;;;16.40;1.00;;;;;;5012821;28;20719;-78
2021/09/14 06:59:46;;;;;;;18.20;8.30;;;16.50;1.00;;;;;;5012884;28;20172;-78
2021/09/14 07:02:15;;;;;;;15.30;8.70;;;16.60;1.00;;;;;;5012722;28;20619;-78
2021/09/14 07:04:41;;;;;;;23.43;7.57;;;16.70;1.00;;;;;;5012835;28;20361;-78
2021/09/14 07:07:07;;;;;;;13.43;8.30;;;16.80;1.00;;;;;;5012874;28;20487;-78
2021/09/14 07:09:32;;;;;;;12.90;7.87;;;16.90;1.00;;;;;;5012917;28;20896;-77
2021/09/14 07:11:58;;;;;;;14.33;10.10;;;17.00;1.00;;;;;;5012587;28;20194;-78
2021/09/14 07:14:23;;;;;;;10.00;7.10;;;17.10;1.00;;;;;;5012575;28;20214;-78
2021/09/14 07:16:49;;;;;;;13.67;8.87;;;;;;;;;;5012666;28;20250;-78
2021/09/14 07:19:15;;;;;;;11.67;6.83;;;17.40;1.00;;;;;;5011529;28;20527;-78
2021/09/14 07:21:41;;;;;;;14.80;7.53;;;17.40;1.00;;;;;;5012541;28;20410;-78
2021/09/14 07:24:06;;;;;;;17.53;7.70;;;17.70;1.00;;;;;;5012855;28;20170;-78
2021/09/14 07:26:32;;;;;;;16.67;8.03;;;17.70;1.00;;;;;;5012440;28;20172;-78
2021/09/14 07:28:57;;;;;;;11.33;7.90;;;17.90;1.00;;;;;;5012485;28;20242;-78
2021/09/14 07:31:23;;;;;;;13.87;8.43;;;18.00;1.00;;;;;;5030655;28;20300;-78
2021/09/14 07:33:49;;;;;;;8.20;7.27;;;18.10;1.00;;;;;;5024485;28;20274;-77
2021/09/14 07:36:14;;;;;;;17.47;7.90;;;18.10;1.00;;;;;;5015733;28;20185;-77
2021/09/14 07:38:42;;;;;;;15.03;7.43;;;18.50;1.00;;;;;;5022975;28;20706;-77
2021/09/14 07:41:08;;;;;;;10.07;6.53;;;18.40;1.00;;;;;;5033425;28;20195;-78
2021/09/14 07:43:34;;;;;;;10.33;7.47;;;18.60;1.00;;;;;;5016397;28;20404;-78
2021/09/14 07:46:04;;;;;;;11.30;6.93;;;18.70;1.00;;;;;;5015802;28;20188;-77
2021/09/14 07:48:29;;;;;;;12.47;6.50;;;18.80;1.00;;;;;;5015781;28;20173;-77
2021/09/14 07:50:55;;;;;;;7.90;5.97;;;19.00;1.00;;;;;;5015472;28;20452;-77
2021/09/14 07:53:21;;;;;;;10.60;6.97;;;19.10;1.00;;;;;;5015642;28;20176;-77
2021/09/14 07:55:46;;;;;;;8.83;7.33;;;19.30;1.00;;;;;;5016254;28;20161;-77
2021/09/14 07:58:12;;;;;;;9.20;7.03;;;19.30;1.00;;;;;;5015801;28;20161;-77
2021/09/14 08:00:37;;;;;;;8.10;5.63;;;19.40;1.00;;;;;;5015566;28;20612;-77
2021/09/14 08:03:03;;;;;;;15.07;6.83;;;19.50;1.00;;;;;;5015535;28;20256;-77
2021/09/14 08:05:29;;;;;;;11.23;6.10;;;19.60;1.00;;;;;;5025185;28;20350;-77
2021/09/14 08:07:54;;;;;;;11.70;6.73;;;19.70;1.00;;;;;;5034776;28;20657;-77
2021/09/14 08:10:20;;;;;;;12.13;5.70;;;19.80;1.00;;;;;;5034279;28;20175;-77
2021/09/14 08:12:46;;;;;;;9.33;6.27;;;;;;;;;;5035172;28;20168;-77
2021/09/14 08:15:12;;;;;;;15.27;6.70;;;20.00;1.00;;;;;;5035093;28;20244;-77
2021/09/14 08:17:38;;;;;;;15.10;6.60;;;20.00;1.00;;;;;;5035165;28;20422;-77
2021/09/14 08:20:05;;;;;;;8.87;6.40;;;20.20;1.00;;;;;;5033976;28;20925;-77
2021/09/14 08:22:30;;;;;;;6.43;4.93;;;20.40;1.00;;;;;;5033674;28;20442;-77
2021/09/14 08:24:56;;;;;;;6.27;5.67;;;20.50;1.00;;;;;;5035328;28;20405;-78
2021/09/14 08:27:22;;;;;;;14.00;5.17;;;20.60;1.00;;;;;;5034967;28;20170;-78
2021/09/14 08:29:48;;;;;;;8.17;5.63;;;20.70;1.00;;;;;;5034921;28;20652;-78
2021/09/14 08:32:14;;;;;;;9.40;6.00;;;20.90;1.00;;;;;;5034673;28;20504;-78
2021/09/14 08:34:40;;;;;;;7.70;5.77;;;;;;;;;;5017237;28;20197;-78
2021/09/14 08:37:05;;;;;;;6.77;4.90;;;20.80;1.00;;;;;;5033240;28;20194;-78
2021/09/14 08:39:31;;;;;;;7.00;5.47;;;20.90;1.00;;;;;;5034980;28;20401;-77
2021/09/14 08:41:57;;;;;;;7.50;4.43;;;21.00;1.00;;;;;;5028648;28;20265;-78
2021/09/14 08:44:23;;;;;;;8.03;5.60;;;;;;;;;;5014450;28;20633;-78
2021/09/14 08:46:49;;;;;;;7.60;5.30;;;21.10;1.00;;;;;;5014850;28;20406;-78
2021/09/14 08:49:14;;;;;;;11.50;5.07;;;21.30;1.00;;;;;;5014822;28;20408;-78
2021/09/14 08:51:41;;;;;;;5.23;4.70;;;21.30;1.00;;;;;;5014464;28;20222;-78
2021/09/14 08:54:07;;;;;;;9.60;5.90;;;21.40;1.00;;;;;;5014555;28;20581;-78
2021/09/14 08:56:34;;;;;;;8.00;4.67;;;;;;;;;;5014969;28;20717;-78
2021/09/14 08:59:02;;;;;;;9.60;5.33;;;21.70;1.00;;;;;;5014557;28;20433;-78
2021/09/14 09:01:28;;;;;;;7.37;5.10;;;21.80;1.00;;;;;;5014535;28;20424;-78
2021/09/14 09:04:03;;;;;;;10.47;5.80;;;21.80;1.00;;;;;;5014371;28;20497;-78
2021/09/14 09:06:40;;;;;;;8.37;5.77;;;21.80;1.00;;;;;;5014408;28;20404;-78
2021/09/14 09:09:13;;;;;;;6.53;5.60;;;21.90;1.00;;;;;;5014739;28;20409;-78
2021/09/14 09:11:55;;;;;;;8.10;4.43;;;22.10;1.00;;;;;;5014698;28;20443;-78
2021/09/14 09:14:45;;;;;;;7.80;5.80;;;22.20;1.00;;;;;;5029464;28;20861;-78
2021/09/14 09:17:18;;;;;;;8.40;4.83;;;22.20;1.00;;;;;;5013943;28;20761;-78
2021/09/14 09:19:58;;;;;;;8.70;4.80;;;22.20;1.00;;;;;;5012718;28;20454;-78
2021/09/14 09:22:25;;;;;;;5.47;4.63;;;22.10;1.00;;;;;;5033499;28;20503;-78
2021/09/14 09:24:53;;;;;;;9.70;5.73;;;22.30;1.00;;;;;;5034023;28;20958;-78
2021/09/14 09:27:22;;;;;;;8.23;4.70;;;22.30;1.00;;;;;;5033789;28;20472;-78
2021/09/14 09:30:03;;;;;;;4.33;3.93;;;22.40;1.00;;;;;;5033682;28;20451;-78
2021/09/14 09:32:43;;;;;;;6.83;4.23;;;22.50;1.00;;;;;;5033396;28;20472;-78
2021/09/14 09:35:09;;;;;;;7.77;5.20;;;22.50;1.00;;;;;;5016047;28;20410;-78
2021/09/14 09:37:35;;;;;;;7.80;5.00;;;22.60;1.00;;;;;;5033040;28;20415;-78
2021/09/14 09:40:01;;;;;;;6.90;5.10;;;22.50;1.00;;;;;;5034104;28;20435;-77
2021/09/14 09:42:31;;;;;;;11.13;5.10;;;22.60;1.00;;;;;;5033492;28;20197;-77
2021/09/14 09:44:59;;;;;;;8.53;4.97;;;22.80;1.00;;;;;;5033517;28;20173;-77
2021/09/14 09:47:25;;;;;;;5.43;4.73;;;22.60;1.00;;;;;;5033427;28;20389;-77
2021/09/14 09:49:52;;;;;;;6.10;5.20;;;22.70;1.00;;;;;;5033595;28;20401;-77
2021/09/14 09:52:18;;;;;;;5.93;4.90;;;22.70;1.00;;;;;;5033335;28;20493;-77
2021/09/14 09:54:45;;;;;;;5.47;4.50;;;22.80;1.00;;;;;;5032726;28;20408;-77
2021/09/14 09:57:12;;;;;;;6.10;4.43;;;22.90;1.00;;;;;;5034009;28;20796;-77
2021/09/14 09:59:38;;;;;;;6.17;4.20;;;23.00;1.00;;;;;;5033226;28;20946;-77
2021/09/14 10:02:17;;;;;;;7.83;5.03;;;23.20;1.00;;;;;;5033161;28;20403;-77
2021/09/14 10:05:03;;;;;;;5.57;4.17;;;23.20;1.00;;;;;;5033222;28;20803;-78
2021/09/14 10:07:31;;;;;;;6.60;5.03;;;23.40;1.00;;;;;;5033134;28;20448;-77
2021/09/14 10:09:58;;;;;;;7.63;5.00;;;23.40;1.00;;;;;;5033184;28;20461;-77
2021/09/14 10:12:35;;;;;;;9.10;4.63;;;23.40;1.00;;;;;;5033336;28;20453;-78
2021/09/14 10:15:07;;;;;;;6.43;4.60;;;23.50;1.00;;;;;;5033040;28;20406;-78
2021/09/14 10:17:49;;;;;;;8.10;4.90;;;23.60;1.00;;;;;;5032936;28;20401;-78
2021/09/14 10:20:15;;;;;;;5.27;4.77;;;23.70;1.00;;;;;;5032844;28;20407;-78
2021/09/14 10:22:44;;;;;;;11.23;4.17;;;23.80;1.00;;;;;;5033077;28;20800;-78
2021/09/14 10:25:20;;;;;;;6.13;4.50;;;23.70;1.00;;;;;;5032890;28;20409;-78
2021/09/14 10:27:47;;;;;;;7.87;4.53;;;23.80;1.00;;;;;;5033318;28;20859;-77
2021/09/14 10:30:14;;;;;;;4.97;4.20;;;23.90;1.00;;;;;;5033121;28;20436;-77
2021/09/14 10:32:42;;;;;;;4.50;4.10;;;23.90;1.00;;;;;;5032484;28;20511;-77
2021/09/14 10:35:10;;;;;;;6.47;4.40;;;23.90;1.00;;;;;;5014256;28;20797;-77
2021/09/14 10:37:36;;;;;;;5.77;4.20;;;24.00;1.00;;;;;;5032676;28;20424;-77
2021/09/14 10:40:22;;;;;;;6.80;4.37;;;24.00;1.00;;;;;;5032806;28;20428;-77
2021/09/14 10:42:48;;;;;;;6.63;4.40;;;24.00;1.00;;;;;;5033236;28;20933;-77
2021/09/14 10:45:17;;;;;;;5.17;4.63;;;23.70;1.00;;;;;;5032652;28;20398;-77
2021/09/14 10:47:48;;;;;;;7.37;4.80;;;23.80;1.00;;;;;;5032648;28;20552;-77
2021/09/14 10:50:26;;;;;;;5.30;4.50;;;23.80;1.00;;;;;;5032556;28;20413;-77
2021/09/14 10:53:00;;;;;;;4.83;4.33;;;24.10;1.00;;;;;;5032646;28;20407;-77
2021/09/14 10:55:26;;;;;;;6.57;4.43;;;24.10;1.00;;;;;;5032622;28;20384;-77
2021/09/14 10:57:57;;;;;;;6.63;4.77;;;24.20;1.00;;;;;;5033002;28;20408;-78
2021/09/14 11:00:33;;;;;;;9.50;5.00;;;24.20;1.00;;;;;;5032553;28;20394;-78
2021/09/14 11:03:01;;;;;;;9.17;4.10;;;24.50;1.00;;;;;;5032548;28;20419;-78
2021/09/14 11:05:35;;;;;;;6.00;4.43;;;24.40;1.00;;;;;;5032704;28;20380;-78
2021/09/14 11:08:04;;;;;;;8.57;4.67;;;24.40;1.00;;;;;;5036298;28;20445;-78
2021/09/14 11:10:38;;;;;;;6.03;4.03;;;24.80;1.00;;;;;;5036202;28;20505;-78
2021/09/14 11:13:05;;;;;;;5.97;5.13;;;25.10;1.00;;;;;;5036627;28;20470;-77
2021/09/14 11:15:31;;;;;;;7.30;4.30;;;25.10;1.00;;;;;;5036222;28;20428;-77
2021/09/14 11:17:57;;;;;;;7.80;4.20;;;25.10;1.00;;;;;;5036184;28;20484;-77
2021/09/14 11:20:26;;;;;;;9.93;5.00;;;25.20;1.00;;;;;;5036089;28;20508;-77
2021/09/14 11:22:53;;;;;;;8.60;4.43;;;25.40;1.00;;;;;;5036174;28;20515;-77
2021/09/14 11:25:28;;;;;;;7.03;4.27;;;25.50;1.00;;;;;;5036079;28;20399;-77
2021/09/14 11:28:01;;;;;;;7.00;5.23;;;25.60;1.00;;;;;;5036298;28;20397;-77
2021/09/14 11:30:28;;;;;;;7.47;4.87;;;25.70;1.00;;;;;;5036102;28;20450;-77
2021/09/14 11:32:55;;;;;;;8.80;4.87;;;25.80;1.00;;;;;;5035414;28;20401;-77
2021/09/14 11:35:22;;;;;;;4.70;4.30;;;25.90;1.00;;;;;;5015730;28;20806;-77
2021/09/14 11:38:02;;;;;;;4.60;4.03;;;25.90;1.00;;;;;;5015777;28;20475;-77
2021/09/14 11:40:28;;;;;;;8.63;3.70;;;26.00;1.00;;;;;;5016059;28;20392;-77
2021/09/14 11:42:55;;;;;;;5.03;4.53;;;25.90;1.00;;;;;;5016251;28;20845;-77
2021/09/14 11:45:26;;;;;;;6.80;4.10;;;25.90;1.00;;;;;;5014641;28;20426;-77
2021/09/14 11:47:53;;;;;;;5.50;4.60;;;26.00;1.00;;;;;;5015865;28;20389;-77
2021/09/14 11:50:33;;;;;;;6.23;3.73;;;26.20;1.00;;;;;;5015684;28;20453;-77
2021/09/14 11:53:10;;;;;;;5.53;4.20;;;26.50;1.00;;;;;;5015811;28;20407;-77
2021/09/14 11:55:44;;;;;;;4.60;4.20;;;26.50;1.00;;;;;;5015777;28;20403;-77
2021/09/14 11:58:10;;;;;;;6.97;4.17;;;26.70;1.00;;;;;;5015674;28;20412;-77
2021/09/14 12:00:57;;;;;;;4.77;3.80;;;26.80;1.00;;;;;;5015692;28;20399;-77
2021/09/14 12:03:43;;;;;;;6.63;4.40;;;26.80;1.00;;;;;;5015649;28;20413;-77
2021/09/14 12:06:10;;;;;;;4.13;3.73;;;26.70;1.00;;;;;;5014382;28;20437;-77
2021/09/14 12:08:42;;;;;;;5.63;3.60;;;26.90;1.00;;;;;;5015431;28;20457;-77
2021/09/14 12:11:08;;;;;;;4.17;3.77;;;27.00;1.00;;;;;;5015438;28;20456;-77
2021/09/14 12:13:43;;;;;;;3.90;3.60;;;27.10;1.00;;;;;;5015687;28;20399;-78
2021/09/14 12:16:17;;;;;;;12.37;3.60;;;27.00;1.00;;;;;;5015413;28;20543;-78
2021/09/14 12:18:44;;;;;;;9.43;3.53;;;27.00;1.00;;;;;;5014691;28;20737;-78
2021/09/14 12:21:10;;;;;;;4.13;3.60;;;27.00;1.00;;;;;;5024721;28;20446;-78
2021/09/14 12:23:37;;;;;;;5.97;3.30;;;27.00;1.00;;;;;;5035058;28;20413;-78
2021/09/14 12:26:03;;;;;;;4.50;3.53;;;27.10;1.00;;;;;;5034947;28;20404;-78
2021/09/14 12:28:29;;;;;;;3.67;3.37;;;27.00;1.00;;;;;;5035176;28;20393;-78
2021/09/14 12:30:55;;;;;;;4.53;3.60;;;26.90;1.00;;;;;;5035111;28;20497;-78
2021/09/14 12:33:20;;;;;;;7.10;3.20;;;27.00;1.00;;;;;;5033466;28;20591;-78
2021/09/14 12:35:46;;;;;;;4.17;3.77;;;27.00;1.00;;;;;;5034986;28;20173;-78
2021/09/14 12:38:12;;;;;;;3.87;3.40;;;27.20;1.00;;;;;;5034358;28;20247;-78
2021/09/14 12:40:38;;;;;;;4.00;3.70;;;27.20;1.00;;;;;;5034722;28;20159;-78
2021/09/14 12:43:04;;;;;;;4.20;3.50;;;27.50;1.00;;;;;;5034947;28;20177;-78
2021/09/14 12:45:30;;;;;;;4.50;3.47;;;27.60;1.00;;;;;;5034598;28;20401;-78
2021/09/14 12:47:55;;;;;;;5.33;3.93;;;27.80;1.00;;;;;;5034549;28;20454;-78
2021/09/14 12:50:21;;;;;;;6.83;3.50;;;28.00;1.00;;;;;;5034318;28;20896;-78
2021/09/14 12:52:47;;;;;;;7.80;3.83;;;28.20;1.00;;;;;;5034498;28;20564;-78
2021/09/14 12:55:12;;;;;;;4.27;3.23;;;28.30;1.00;;;;;;5034359;28;20167;-78
2021/09/14 12:57:38;;;;;;;15.73;3.73;;;28.30;1.00;;;;;;5034569;28;20180;-78
2021/09/14 13:00:06;;;;;;;4.10;3.60;;;30.90;1.00;;;;;;5034305;28;20163;-78
2021/09/14 13:02:31;;;;;;;3.60;3.30;;;28.50;1.00;;;;;;5034231;28;20741;-78
2021/09/14 13:04:57;;;;;;;6.27;3.53;;;28.60;1.00;;;;;;5034252;28;20403;-78
2021/09/14 13:07:22;;;;;;;3.83;3.53;;;28.80;1.00;;;;;;5032964;28;20185;-78
2021/09/14 13:09:48;;;;;;;3.63;3.33;;;29.00;1.00;;;;;;5034075;28;20637;-78
2021/09/14 13:12:20;;;;;;;3.47;3.17;;;29.10;1.00;;;;;;5034429;28;20191;-78
2021/09/14 13:17:31;;;;;;;4.30;3.20;;;29.10;1.00;;;;;;5033897;28;20437;-78
2021/09/14 13:19:57;;;;;;;10.97;3.17;;;29.10;1.00;;;;;;5034003;28;20402;-78
2021/09/14 13:22:23;;;;;;;4.90;3.30;;;29.10;1.00;;;;;;5033845;28;20431;-78
2021/09/14 13:24:48;;;;;;;3.37;3.07;;;29.10;1.00;;;;;;5033868;28;20531;-78
2021/09/14 13:27:14;;;;;;;6.73;3.67;;;28.80;1.00;;;;;;5034106;28;20540;-76
2021/09/14 13:29:39;;;;;;;3.63;3.20;;;28.80;1.00;;;;;;5032852;28;20152;-76
2021/09/14 13:32:05;;;;;;;3.87;3.10;;;28.70;1.00;;;;;;5033433;28;20547;-76
2021/09/14 13:34:31;;;;;;;4.60;3.53;;;28.70;1.00;;;;;;5019986;28;20189;-76
2021/09/14 13:36:56;;;;;;;9.40;3.43;;;28.60;1.00;;;;;;5028263;28;20426;-76
2021/09/14 13:39:22;;;;;;;3.50;3.20;;;28.60;1.00;;;;;;5032257;28;20288;-76
2021/09/14 13:41:51;;;;;;;4.30;3.40;;;28.60;1.00;;;;;;5033463;28;20163;-76
2021/09/14 13:46:58;;;;;;;5.57;3.70;;;28.40;1.00;;;;;;5033498;28;20445;-77
2021/09/14 13:49:23;;;;;;;10.03;3.20;;;28.40;1.00;;;;;;5033214;28;20417;-77
2021/09/14 13:51:50;;;;;;;4.77;4.10;;;28.40;1.00;;;;;;5033305;28;20475;-77
2021/09/14 13:54:16;;;;;;;6.83;3.50;;;28.40;1.00;;;;;;5033326;28;20156;-77
2021/09/14 13:56:42;;;;;;;3.60;3.30;;;28.30;1.00;;;;;;5033292;28;20488;-77
2021/09/14 13:59:07;;;;;;;3.23;3.03;;;28.20;1.00;;;;;;5033576;28;20660;-78
2021/09/14 14:01:39;;;;;;;5.80;3.50;;;28.30;1.00;;;;;;5033261;28;20167;-78
2021/09/14 14:04:04;;;;;;;4.90;4.03;;;28.20;1.00;;;;;;5033244;28;20162;-78
2021/09/14 14:06:30;;;;;;;4.67;3.90;;;28.30;1.00;;;;;;5033035;28;20904;-78
2021/09/14 14:08:56;;;;;;;7.93;4.00;;;28.30;1.00;;;;;;5033055;28;20166;-78
2021/09/14 14:11:22;;;;;;;7.93;3.80;;;;;;;;;;5031821;28;20284;-78
2021/09/14 14:13:51;;;;;;;4.70;3.40;;;28.30;1.00;;;;;;5032437;28;20165;-77
2021/09/14 14:16:17;;;;;;;6.57;3.30;;;28.40;1.00;;;;;;5022607;28;20493;-76
2021/09/14 14:18:57;;;;;;;10.30;3.63;;;28.50;1.00;;;;;;5025957;28;20533;-81
2021/09/14 14:21:33;;;;;;;12.70;3.63;;;28.50;1.00;;;;;;5024326;28;20189;-81
2021/09/14 14:31:14;;;;;;;6.60;3.90;;;28.70;1.00;;;;;;5032877;28;20409;-81
2021/09/14 14:40:24;;;;;;;4.47;3.73;;;28.60;1.00;;;;;;5033050;28;20430;-81
2021/09/14 14:43:33;;;;;;;6.33;3.83;;;28.40;1.00;;;;;;5037329;28;20419;-80
2021/09/14 14:45:58;;;;;;;6.83;4.23;;;28.40;1.00;;;;;;5036240;28;20190;-79
2021/09/14 14:48:25;;;;;;;5.03;4.17;;;28.20;1.00;;;;;;5020528;28;20429;-80
2021/09/14 14:50:51;;;;;;;5.10;4.20;;;28.20;1.00;;;;;;5021111;28;20748;-79
2021/09/14 14:53:17;;;;;;;5.67;4.43;;;28.20;1.00;;;;;;5036032;28;20484;-80
2021/09/14 14:55:43;;;;;;;4.70;4.13;;;28.20;1.00;;;;;;5035355;28;20908;-80
2021/09/14 14:58:08;;;;;;;12.70;4.50;;;28.10;1.00;;;;;;5036770;28;20228;-80
2021/09/14 15:00:51;;;;;;;7.23;4.60;;;28.10;1.00;;;;;;5034763;28;20304;-80
2021/09/14 15:06:38;;;;;;;5.20;4.00;;;28.10;1.00;;;;;;5023162;28;20810;-81
2021/09/14 15:09:50;;;;;;;3.93;3.63;;;28.10;1.00;;;;;;5032218;28;20422;-81